sensor_id;sensor_type;location;lat;lon;timestamp;pressure;altitude;pressure_sealevel;temperature;humidity
24234;BME280;12365;43.554;1.388;2022-07-24T00:02:02;100160.38;;;26.67;42.72
24234;BME280;12365;43.554;1.388;2022-07-24T00:04:27;100156.81;;;26.65;42.74
24234;BME280;12365;43.554;1.388;2022-07-24T00:06:53;100151.56;;;26.59;43.07
24234;BME280;12365;43.554;1.388;2022-07-24T00:09:18;100151.59;;;26.53;42.88
24234;BME280;12365;43.554;1.388;2022-07-24T00:11:43;100156.94;;;26.54;43.06
24234;BME280;12365;43.554;1.388;2022-07-24T00:14:09;100148.06;;;26.48;42.93
24234;BME280;12365;43.554;1.388;2022-07-24T00:16:35;100143.63;;;26.45;43.30
24234;BME280;12365;43.554;1.388;2022-07-24T00:19:00;100145.47;;;26.40;43.52
24234;BME280;12365;43.554;1.388;2022-07-24T00:21:26;100144.63;;;26.36;43.61
24234;BME280;12365;43.554;1.388;2022-07-24T00:23:51;100142.88;;;26.34;43.37
24234;BME280;12365;43.554;1.388;2022-07-24T00:26:17;100134.84;;;26.32;43.69
24234;BME280;12365;43.554;1.388;2022-07-24T00:28:42;100126.88;;;26.28;43.57
24234;BME280;12365;43.554;1.388;2022-07-24T00:31:07;100127.81;;;26.24;43.89
24234;BME280;12365;43.554;1.388;2022-07-24T00:33:33;100134.97;;;26.22;43.95
24234;BME280;12365;43.554;1.388;2022-07-24T00:35:59;100127.88;;;26.21;44.26
24234;BME280;12365;43.554;1.388;2022-07-24T00:38:24;100126.94;;;26.20;44.23
24234;BME280;12365;43.554;1.388;2022-07-24T00:40:49;100131.41;;;26.21;44.16
24234;BME280;12365;43.554;1.388;2022-07-24T00:43:15;100125.19;;;26.19;44.40
24234;BME280;12365;43.554;1.388;2022-07-24T00:45:42;100124.34;;;26.12;44.57
24234;BME280;12365;43.554;1.388;2022-07-24T00:48:08;100120.78;;;26.13;44.56
24234;BME280;12365;43.554;1.388;2022-07-24T00:50:34;100123.47;;;26.12;44.42
24234;BME280;12365;43.554;1.388;2022-07-24T00:52:59;100122.63;;;26.07;44.63
24234;BME280;12365;43.554;1.388;2022-07-24T00:55:26;100116.44;;;26.00;44.75
24234;BME280;12365;43.554;1.388;2022-07-24T00:57:52;100125.38;;;25.98;45.02
24234;BME280;12365;43.554;1.388;2022-07-24T01:00:19;100121.88;;;25.96;44.69
24234;BME280;12365;43.554;1.388;2022-07-24T01:02:45;100120.06;;;25.94;44.80
24234;BME280;12365;43.554;1.388;2022-07-24T01:05:11;100121.91;;;25.89;44.94
24234;BME280;12365;43.554;1.388;2022-07-24T01:07:37;100115.69;;;25.84;45.18
24234;BME280;12365;43.554;1.388;2022-07-24T01:10:04;100112.16;;;25.79;45.00
24234;BME280;12365;43.554;1.388;2022-07-24T01:12:31;100111.31;;;25.74;45.30
24234;BME280;12365;43.554;1.388;2022-07-24T01:14:57;100107.75;;;25.72;45.60
24234;BME280;12365;43.554;1.388;2022-07-24T01:17:23;100102.44;;;25.69;45.36
24234;BME280;12365;43.554;1.388;2022-07-24T01:19:53;100101.59;;;25.65;45.51
24234;BME280;12365;43.554;1.388;2022-07-24T01:22:19;100101.59;;;25.64;45.39
24234;BME280;12365;43.554;1.388;2022-07-24T01:24:44;100100.75;;;25.59;45.52
24234;BME280;12365;43.554;1.388;2022-07-24T01:27:10;100095.44;;;25.54;46.01
24234;BME280;12365;43.554;1.388;2022-07-24T01:29:35;100103.53;;;25.48;46.15
24234;BME280;12365;43.554;1.388;2022-07-24T01:32:01;100099.97;;;25.44;45.86
24234;BME280;12365;43.554;1.388;2022-07-24T01:34:26;100103.59;;;25.39;46.14
24234;BME280;12365;43.554;1.388;2022-07-24T01:36:52;100105.41;;;25.35;45.98
24234;BME280;12365;43.554;1.388;2022-07-24T01:39:17;100101.88;;;25.30;46.43
24234;BME280;12365;43.554;1.388;2022-07-24T01:41:43;100092.09;;;25.26;46.31
24234;BME280;12365;43.554;1.388;2022-07-24T01:44:08;100098.34;;;25.25;46.39
24234;BME280;12365;43.554;1.388;2022-07-24T01:46:33;100094.75;;;25.24;46.58
24234;BME280;12365;43.554;1.388;2022-07-24T01:48:59;100093.94;;;25.18;46.62
24234;BME280;12365;43.554;1.388;2022-07-24T01:51:24;100090.38;;;25.13;47.00
24234;BME280;12365;43.554;1.388;2022-07-24T01:53:50;100093.06;;;25.13;47.09
24234;BME280;12365;43.554;1.388;2022-07-24T01:56:15;100092.13;;;25.14;46.80
24234;BME280;12365;43.554;1.388;2022-07-24T01:58:40;100094.84;;;25.12;47.19
24234;BME280;12365;43.554;1.388;2022-07-24T02:01:06;100089.53;;;25.07;47.39
24234;BME280;12365;43.554;1.388;2022-07-24T02:03:31;100081.53;;;25.03;47.05
24234;BME280;12365;43.554;1.388;2022-07-24T02:05:57;100086.91;;;25.00;47.09
24234;BME280;12365;43.554;1.388;2022-07-24T02:08:22;100077.09;;;24.99;47.25
24234;BME280;12365;43.554;1.388;2022-07-24T02:10:48;100078.91;;;24.95;47.37
24234;BME280;12365;43.554;1.388;2022-07-24T02:13:13;100069.13;;;24.93;47.70
24234;BME280;12365;43.554;1.388;2022-07-24T02:15:39;100074.50;;;24.88;47.66
24234;BME280;12365;43.554;1.388;2022-07-24T02:18:04;100076.28;;;24.86;47.96
24234;BME280;12365;43.554;1.388;2022-07-24T02:20:30;100073.66;;;24.80;48.10
24234;BME280;12365;43.554;1.388;2022-07-24T02:22:55;100072.81;;;24.75;47.91
24234;BME280;12365;43.554;1.388;2022-07-24T02:25:21;100074.56;;;24.76;48.09
24234;BME280;12365;43.554;1.388;2022-07-24T02:27:47;100062.16;;;24.72;48.29
24234;BME280;12365;43.554;1.388;2022-07-24T02:30:15;100066.56;;;24.73;48.43
24234;BME280;12365;43.554;1.388;2022-07-24T02:32:41;100061.25;;;24.70;48.27
24234;BME280;12365;43.554;1.388;2022-07-24T02:35:06;100062.16;;;24.65;48.43
24234;BME280;12365;43.554;1.388;2022-07-24T02:37:34;100061.28;;;24.63;48.51
24234;BME280;12365;43.554;1.388;2022-07-24T02:40:00;100053.28;;;24.60;48.61
24234;BME280;12365;43.554;1.388;2022-07-24T02:42:25;100051.56;;;24.56;48.71
24234;BME280;12365;43.554;1.388;2022-07-24T02:44:50;100046.22;;;24.53;48.74
24234;BME280;12365;43.554;1.388;2022-07-24T02:47:16;100048.00;;;24.48;48.72
24234;BME280;12365;43.554;1.388;2022-07-24T02:49:41;100048.91;;;24.46;48.79
24234;BME280;12365;43.554;1.388;2022-07-24T02:52:06;100046.25;;;24.41;48.89
24234;BME280;12365;43.554;1.388;2022-07-24T02:54:32;100040.03;;;24.37;49.06
24234;BME280;12365;43.554;1.388;2022-07-24T02:56:57;100043.63;;;24.32;49.42
24234;BME280;12365;43.554;1.388;2022-07-24T02:59:23;100035.63;;;24.29;49.18
24234;BME280;12365;43.554;1.388;2022-07-24T03:01:48;100037.41;;;24.27;49.25
24234;BME280;12365;43.554;1.388;2022-07-24T03:04:13;100033.84;;;24.25;49.62
24234;BME280;12365;43.554;1.388;2022-07-24T03:06:39;100028.53;;;24.25;49.38
24234;BME280;12365;43.554;1.388;2022-07-24T03:09:04;100033.88;;;24.21;49.59
24234;BME280;12365;43.554;1.388;2022-07-24T03:11:30;100032.97;;;24.19;49.77
24234;BME280;12365;43.554;1.388;2022-07-24T03:13:55;100035.66;;;24.19;49.86
24234;BME280;12365;43.554;1.388;2022-07-24T03:16:20;100032.13;;;24.16;49.76
24234;BME280;12365;43.554;1.388;2022-07-24T03:18:46;100032.13;;;24.14;49.82
24234;BME280;12365;43.554;1.388;2022-07-24T03:21:14;100031.22;;;24.15;50.22
24234;BME280;12365;43.554;1.388;2022-07-24T03:23:40;100031.22;;;24.12;49.99
24234;BME280;12365;43.554;1.388;2022-07-24T03:26:06;100032.13;;;24.11;49.89
24234;BME280;12365;43.554;1.388;2022-07-24T03:28:32;100033.00;;;24.12;50.03
24234;BME280;12365;43.554;1.388;2022-07-24T03:30:57;100029.47;;;24.10;50.23
24234;BME280;12365;43.554;1.388;2022-07-24T03:33:23;100032.13;;;24.11;50.42
24234;BME280;12365;43.554;1.388;2022-07-24T03:35:48;100025.03;;;24.07;50.32
24234;BME280;12365;43.554;1.388;2022-07-24T03:38:14;100032.13;;;24.10;50.49
24234;BME280;12365;43.554;1.388;2022-07-24T03:40:39;100034.81;;;24.07;50.46
24234;BME280;12365;43.554;1.388;2022-07-24T03:43:05;100042.81;;;24.08;50.69
24234;BME280;12365;43.554;1.388;2022-07-24T03:45:30;100039.22;;;24.08;50.76
24234;BME280;12365;43.554;1.388;2022-07-24T03:47:56;100039.25;;;24.05;50.78
24234;BME280;12365;43.554;1.388;2022-07-24T03:50:21;100038.34;;;24.02;50.55
24234;BME280;12365;43.554;1.388;2022-07-24T03:52:46;100042.81;;;24.02;50.82
24234;BME280;12365;43.554;1.388;2022-07-24T03:55:12;100041.06;;;23.98;50.86
24234;BME280;12365;43.554;1.388;2022-07-24T03:57:37;100040.16;;;23.97;50.68
24234;BME280;12365;43.554;1.388;2022-07-24T04:00:04;100045.47;;;23.97;50.75
24234;BME280;12365;43.554;1.388;2022-07-24T04:02:30;100044.63;;;23.94;50.73
24234;BME280;12365;43.554;1.388;2022-07-24T04:04:55;100033.09;;;23.90;50.80
24234;BME280;12365;43.554;1.388;2022-07-24T04:07:21;100035.72;;;23.92;50.82
24234;BME280;12365;43.554;1.388;2022-07-24T04:09:46;100035.75;;;23.89;50.82
24234;BME280;12365;43.554;1.388;2022-07-24T04:12:11;100029.53;;;23.84;50.74
24234;BME280;12365;43.554;1.388;2022-07-24T04:14:37;100030.44;;;23.83;50.87
24234;BME280;12365;43.554;1.388;2022-07-24T04:17:02;100033.97;;;23.82;50.82
24234;BME280;12365;43.554;1.388;2022-07-24T04:19:28;100033.09;;;23.79;50.75
24234;BME280;12365;43.554;1.388;2022-07-24T04:21:53;100033.97;;;23.80;50.69
24234;BME280;12365;43.554;1.388;2022-07-24T04:24:19;100029.56;;;23.76;50.64
24234;BME280;12365;43.554;1.388;2022-07-24T04:26:44;100027.78;;;23.73;50.90
24234;BME280;12365;43.554;1.388;2022-07-24T04:29:10;100032.22;;;23.74;50.70
24234;BME280;12365;43.554;1.388;2022-07-24T04:31:35;100024.22;;;23.73;50.90
24234;BME280;12365;43.554;1.388;2022-07-24T04:34:01;100032.19;;;23.71;51.09
24234;BME280;12365;43.554;1.388;2022-07-24T04:36:26;100030.41;;;23.70;50.95
24234;BME280;12365;43.554;1.388;2022-07-24T04:38:51;100028.63;;;23.69;51.05
24234;BME280;12365;43.554;1.388;2022-07-24T04:41:17;100025.06;;;23.67;51.19
24234;BME280;12365;43.554;1.388;2022-07-24T04:43:43;100022.41;;;23.64;50.98
24234;BME280;12365;43.554;1.388;2022-07-24T04:46:08;100022.44;;;23.61;51.17
24234;BME280;12365;43.554;1.388;2022-07-24T04:48:34;100026.88;;;23.59;51.15
24234;BME280;12365;43.554;1.388;2022-07-24T04:50:59;100025.97;;;23.57;51.26
24234;BME280;12365;43.554;1.388;2022-07-24T04:53:24;100022.44;;;23.53;51.39
24234;BME280;12365;43.554;1.388;2022-07-24T04:55:50;100023.31;;;23.54;51.39
24234;BME280;12365;43.554;1.388;2022-07-24T04:58:15;100019.78;;;23.56;51.25
24234;BME280;12365;43.554;1.388;2022-07-24T05:00:41;100024.22;;;23.56;51.51
24234;BME280;12365;43.554;1.388;2022-07-24T05:03:07;100028.63;;;23.57;51.26
24234;BME280;12365;43.554;1.388;2022-07-24T05:05:32;100026.88;;;23.57;51.41
24234;BME280;12365;43.554;1.388;2022-07-24T05:07:57;100033.06;;;23.59;51.24
24234;BME280;12365;43.554;1.388;2022-07-24T05:10:23;100020.66;;;23.62;51.52
24234;BME280;12365;43.554;1.388;2022-07-24T05:12:48;100027.75;;;23.64;51.36
24234;BME280;12365;43.554;1.388;2022-07-24T05:15:13;100031.31;;;23.66;51.44
24234;BME280;12365;43.554;1.388;2022-07-24T05:17:39;100025.09;;;23.69;51.34
24234;BME280;12365;43.554;1.388;2022-07-24T05:20:05;100030.41;;;23.75;51.52
24234;BME280;12365;43.554;1.388;2022-07-24T05:22:31;100022.44;;;23.81;51.50
24234;BME280;12365;43.554;1.388;2022-07-24T05:24:56;100022.41;;;23.89;51.30
24234;BME280;12365;43.554;1.388;2022-07-24T05:27:22;100023.28;;;23.98;51.12
24234;BME280;12365;43.554;1.388;2022-07-24T05:29:47;100025.03;;;24.04;51.10
24234;BME280;12365;43.554;1.388;2022-07-24T05:32:13;100017.00;;;24.12;50.84
24234;BME280;12365;43.554;1.388;2022-07-24T05:34:38;100017.88;;;24.18;50.87
24234;BME280;12365;43.554;1.388;2022-07-24T05:37:04;100013.41;;;24.22;50.95
24234;BME280;12365;43.554;1.388;2022-07-24T05:39:29;100019.63;;;24.29;50.70
24234;BME280;12365;43.554;1.388;2022-07-24T05:41:55;100016.03;;;24.36;50.91
24234;BME280;12365;43.554;1.388;2022-07-24T05:44:20;100012.44;;;24.40;50.73
24234;BME280;12365;43.554;1.388;2022-07-24T05:46:46;100021.31;;;24.48;50.45
24234;BME280;12365;43.554;1.388;2022-07-24T05:49:11;100017.75;;;24.55;50.66
24234;BME280;12365;43.554;1.388;2022-07-24T05:51:36;100023.06;;;24.58;50.45
24234;BME280;12365;43.554;1.388;2022-07-24T05:54:02;100021.28;;;24.60;50.42
24234;BME280;12365;43.554;1.388;2022-07-24T05:56:28;100023.00;;;24.68;50.38
24234;BME280;12365;43.554;1.388;2022-07-24T05:58:54;100016.75;;;24.75;50.47
24234;BME280;12365;43.554;1.388;2022-07-24T06:01:19;100018.47;;;24.83;50.25
24234;BME280;12365;43.554;1.388;2022-07-24T06:03:45;100014.88;;;24.87;50.08
24234;BME280;12365;43.554;1.388;2022-07-24T06:06:10;100020.16;;;24.94;50.06
24234;BME280;12365;43.554;1.388;2022-07-24T06:08:36;100011.25;;;24.96;50.07
24234;BME280;12365;43.554;1.388;2022-07-24T06:11:01;100017.44;;;25.04;50.02
24234;BME280;12365;43.554;1.388;2022-07-24T06:13:27;100008.47;;;25.15;49.65
24234;BME280;12365;43.554;1.388;2022-07-24T06:15:52;100014.63;;;25.26;49.28
24234;BME280;12365;43.554;1.388;2022-07-24T06:18:18;100011.00;;;25.35;49.27
24234;BME280;12365;43.554;1.388;2022-07-24T06:20:43;100029.66;;;25.42;49.17
24234;BME280;12365;43.554;1.388;2022-07-24T06:23:08;100015.25;;;25.54;49.06
24234;BME280;12365;43.554;1.388;2022-07-24T06:25:34;100008.00;;;25.67;48.89
24234;BME280;12365;43.554;1.388;2022-07-24T06:27:59;100008.84;;;25.72;48.90
24234;BME280;12365;43.554;1.388;2022-07-24T06:30:26;100015.03;;;25.77;48.89
24234;BME280;12365;43.554;1.388;2022-07-24T06:32:54;100008.75;;;25.83;48.59
24234;BME280;12365;43.554;1.388;2022-07-24T06:35:20;100006.00;;;25.93;48.73
24234;BME280;12365;43.554;1.388;2022-07-24T06:37:46;100004.03;;;26.08;48.68
24234;BME280;12365;43.554;1.388;2022-07-24T06:40:12;100006.59;;;26.19;48.22
24234;BME280;12365;43.554;1.388;2022-07-24T06:42:38;100009.13;;;26.28;48.44
24234;BME280;12365;43.554;1.388;2022-07-24T06:45:04;100004.59;;;26.34;48.18
24234;BME280;12365;43.554;1.388;2022-07-24T06:47:29;99997.34;;;26.44;48.13
24234;BME280;12365;43.554;1.388;2022-07-24T06:49:55;99995.47;;;26.54;47.68
24234;BME280;12365;43.554;1.388;2022-07-24T06:52:21;100001.50;;;26.68;47.54
24234;BME280;12365;43.554;1.388;2022-07-24T06:54:47;100005.75;;;26.83;47.30
24234;BME280;12365;43.554;1.388;2022-07-24T06:57:13;100001.06;;;26.96;47.10
24234;BME280;12365;43.554;1.388;2022-07-24T06:59:39;99996.44;;;27.07;46.90
24234;BME280;12365;43.554;1.388;2022-07-24T07:02:05;99991.75;;;27.21;46.82
24234;BME280;12365;43.554;1.388;2022-07-24T07:04:30;99993.34;;;27.35;46.56
24234;BME280;12365;43.554;1.388;2022-07-24T07:06:55;99993.97;;;27.49;46.50
24234;BME280;12365;43.554;1.388;2022-07-24T07:09:21;99994.63;;;27.63;46.33
24234;BME280;12365;43.554;1.388;2022-07-24T07:11:46;99980.13;;;27.74;46.02
24234;BME280;12365;43.554;1.388;2022-07-24T07:14:12;99983.50;;;27.85;45.80
24234;BME280;12365;43.554;1.388;2022-07-24T07:16:38;99988.66;;;27.96;45.55
24234;BME280;12365;43.554;1.388;2022-07-24T07:19:03;99984.84;;;28.07;45.30
24234;BME280;12365;43.554;1.388;2022-07-24T07:21:28;99986.38;;;28.21;45.16
24234;BME280;12365;43.554;1.388;2022-07-24T07:23:54;99986.06;;;28.33;44.89
24234;BME280;12365;43.554;1.388;2022-07-24T07:26:20;99985.88;;;28.42;44.98
24234;BME280;12365;43.554;1.388;2022-07-24T07:28:45;99983.88;;;28.53;44.55
24234;BME280;12365;43.554;1.388;2022-07-24T07:31:11;99983.66;;;28.63;44.15
24234;BME280;12365;43.554;1.388;2022-07-24T07:33:37;99986.09;;;28.73;44.22
24234;BME280;12365;43.554;1.388;2022-07-24T07:36:02;99984.00;;;28.86;43.82
24234;BME280;12365;43.554;1.388;2022-07-24T07:38:28;99982.88;;;28.96;43.38
24234;BME280;12365;43.554;1.388;2022-07-24T07:40:53;99980.88;;;29.06;43.27
24234;BME280;12365;43.554;1.388;2022-07-24T07:43:19;99978.00;;;29.14;43.10
24234;BME280;12365;43.554;1.388;2022-07-24T07:45:44;99976.84;;;29.24;43.01
24234;BME280;12365;43.554;1.388;2022-07-24T07:48:09;99974.88;;;29.32;42.93
24234;BME280;12365;43.554;1.388;2022-07-24T07:50:35;99981.75;;;29.43;42.47
24234;BME280;12365;43.554;1.388;2022-07-24T07:53:00;99973.44;;;29.52;42.33
24234;BME280;12365;43.554;1.388;2022-07-24T07:55:26;99969.44;;;29.68;42.31
24234;BME280;12365;43.554;1.388;2022-07-24T07:57:51;99965.28;;;29.88;41.97
24234;BME280;12365;43.554;1.388;2022-07-24T08:00:17;99953.28;;;30.01;41.13
24234;BME280;12365;43.554;1.388;2022-07-24T08:02:43;99968.00;;;30.19;41.42
24234;BME280;12365;43.554;1.388;2022-07-24T08:05:10;99967.66;;;30.31;41.21
24234;BME280;12365;43.554;1.388;2022-07-24T08:07:35;99964.63;;;30.42;40.94
24234;BME280;12365;43.554;1.388;2022-07-24T08:10:01;99966.22;;;30.49;40.35
24234;BME280;12365;43.554;1.388;2022-07-24T08:12:26;99957.66;;;30.64;40.11
24234;BME280;12365;43.554;1.388;2022-07-24T08:14:52;99964.38;;;30.79;40.09
24234;BME280;12365;43.554;1.388;2022-07-24T08:17:17;99969.28;;;30.95;39.85
24234;BME280;12365;43.554;1.388;2022-07-24T08:19:42;99959.81;;;31.09;39.59
24234;BME280;12365;43.554;1.388;2022-07-24T08:22:08;99962.13;;;31.20;39.19
24234;BME280;12365;43.554;1.388;2022-07-24T08:24:34;99962.47;;;31.36;38.94
24234;BME280;12365;43.554;1.388;2022-07-24T08:26:59;99953.06;;;31.49;38.76
24234;BME280;12365;43.554;1.388;2022-07-24T08:29:25;99942.88;;;31.58;38.28
24234;BME280;12365;43.554;1.388;2022-07-24T08:31:51;99943.66;;;31.61;38.19
24234;BME280;12365;43.554;1.388;2022-07-24T08:34:17;99949.34;;;31.77;38.35
24234;BME280;12365;43.554;1.388;2022-07-24T08:36:42;99949.91;;;31.87;37.93
24234;BME280;12365;43.554;1.388;2022-07-24T08:39:14;99948.72;;;31.95;37.68
24234;BME280;12365;43.554;1.388;2022-07-24T08:41:41;99948.16;;;32.11;37.20
24234;BME280;12365;43.554;1.388;2022-07-24T08:44:06;99946.78;;;32.23;37.19
24234;BME280;12365;43.554;1.388;2022-07-24T08:46:32;99939.25;;;32.31;37.07
24234;BME280;12365;43.554;1.388;2022-07-24T08:49:01;99943.44;;;32.39;36.79
24234;BME280;12365;43.554;1.388;2022-07-24T08:51:32;99930.34;;;32.52;36.67
24234;BME280;12365;43.554;1.388;2022-07-24T08:53:58;99931.41;;;32.70;36.40
24234;BME280;12365;43.554;1.388;2022-07-24T08:56:25;99936.31;;;32.83;36.20
24234;BME280;12365;43.554;1.388;2022-07-24T08:58:50;99932.28;;;32.93;35.89
24234;BME280;12365;43.554;1.388;2022-07-24T09:01:16;99927.44;;;33.01;35.64
24234;BME280;12365;43.554;1.388;2022-07-24T09:03:44;99927.41;;;33.02;35.40
24234;BME280;12365;43.554;1.388;2022-07-24T09:06:11;99921.69;;;33.10;35.32
24234;BME280;12365;43.554;1.388;2022-07-24T09:11:36;99917.63;;;33.41;34.57
24234;BME280;12365;43.554;1.388;2022-07-24T09:14:02;99909.97;;;33.51;34.19
24234;BME280;12365;43.554;1.388;2022-07-24T09:16:47;99922.00;;;33.65;34.44
24234;BME280;12365;43.554;1.388;2022-07-24T09:19:13;99914.38;;;33.74;33.81
24234;BME280;12365;43.554;1.388;2022-07-24T09:21:40;99912.06;;;33.85;33.75
24234;BME280;12365;43.554;1.388;2022-07-24T09:24:17;99917.06;;;33.94;33.67
24234;BME280;12365;43.554;1.388;2022-07-24T09:26:53;99912.00;;;34.05;33.14
24234;BME280;12365;43.554;1.388;2022-07-24T09:29:22;99908.84;;;34.16;32.96
24234;BME280;12365;43.554;1.388;2022-07-24T09:31:59;99908.47;;;34.24;33.03
24234;BME280;12365;43.554;1.388;2022-07-24T09:34:27;99908.31;;;34.27;32.87
24234;BME280;12365;43.554;1.388;2022-07-24T09:37:22;99896.94;;;34.38;32.71
24234;BME280;12365;43.554;1.388;2022-07-24T09:39:47;99902.09;;;34.44;32.41
24234;BME280;12365;43.554;1.388;2022-07-24T09:42:13;99905.38;;;34.50;32.09
24234;BME280;12365;43.554;1.388;2022-07-24T09:44:39;99899.22;;;34.66;31.99
24234;BME280;12365;43.554;1.388;2022-07-24T09:47:10;99898.75;;;34.75;31.57
24234;BME280;12365;43.554;1.388;2022-07-24T09:49:36;99894.06;;;34.79;31.52
24234;BME280;12365;43.554;1.388;2022-07-24T09:54:35;99889.63;;;34.95;31.33
24234;BME280;12365;43.554;1.388;2022-07-24T09:57:20;99889.06;;;35.06;31.00
24234;BME280;12365;43.554;1.388;2022-07-24T09:59:57;99885.91;;;35.15;31.18
24234;BME280;12365;43.554;1.388;2022-07-24T10:02:29;99884.22;;;35.30;30.68
24234;BME280;12365;43.554;1.388;2022-07-24T10:04:57;99878.13;;;35.42;30.42
24234;BME280;12365;43.554;1.388;2022-07-24T10:07:24;99877.72;;;35.50;29.88
24234;BME280;12365;43.554;1.388;2022-07-24T10:09:51;99874.84;;;35.53;29.94
24234;BME280;12365;43.554;1.388;2022-07-24T10:12:22;99868.28;;;35.57;29.33
24234;BME280;12365;43.554;1.388;2022-07-24T10:14:50;99867.59;;;35.71;29.64
24234;BME280;12365;43.554;1.388;2022-07-24T10:17:17;99864.25;;;35.81;29.08
24234;BME280;12365;43.554;1.388;2022-07-24T10:19:45;99862.78;;;35.92;28.80
24234;BME280;12365;43.554;1.388;2022-07-24T10:22:23;99869.94;;;36.10;28.87
24234;BME280;12365;43.554;1.388;2022-07-24T10:24:58;99853.81;;;36.23;28.82
24234;BME280;12365;43.554;1.388;2022-07-24T10:27:36;99857.47;;;36.38;28.39
24234;BME280;12365;43.554;1.388;2022-07-24T10:30:07;99869.38;;;36.51;28.29
24234;BME280;12365;43.554;1.388;2022-07-24T10:32:34;99864.06;;;36.65;27.70
24234;BME280;12365;43.554;1.388;2022-07-24T10:35:08;99853.78;;;36.71;27.43
24234;BME280;12365;43.554;1.388;2022-07-24T10:45:42;99854.94;;;36.97;26.81
24234;BME280;12365;43.554;1.388;2022-07-24T10:53:30;99837.66;;;37.28;26.31
24234;BME280;12365;43.554;1.388;2022-07-24T10:59:08;99838.44;;;37.44;26.03
24234;BME280;12365;43.554;1.388;2022-07-24T11:01:37;99829.59;;;37.41;25.72
24234;BME280;12365;43.554;1.388;2022-07-24T11:06:45;99819.41;;;37.59;25.57
24234;BME280;12365;43.554;1.388;2022-07-24T11:09:12;99817.06;;;37.67;25.49
24234;BME280;12365;43.554;1.388;2022-07-24T11:11:43;99815.13;;;37.83;25.32
24234;BME280;12365;43.554;1.388;2022-07-24T11:19:56;99813.25;;;38.40;24.90
24234;BME280;12365;43.554;1.388;2022-07-24T11:22:37;99809.19;;;38.32;24.80
24234;BME280;12365;43.554;1.388;2022-07-24T11:25:13;99808.97;;;38.35;24.84
24234;BME280;12365;43.554;1.388;2022-07-24T11:27:45;99800.25;;;38.43;24.67
24234;BME280;12365;43.554;1.388;2022-07-24T11:30:11;99801.53;;;38.52;24.52
24234;BME280;12365;43.554;1.388;2022-07-24T11:32:39;99790.97;;;38.60;24.24
24234;BME280;12365;43.554;1.388;2022-07-24T11:35:05;99790.13;;;38.72;24.40
24234;BME280;12365;43.554;1.388;2022-07-24T11:37:32;99780.09;;;38.86;24.15
24234;BME280;12365;43.554;1.388;2022-07-24T11:39:59;99783.72;;;38.86;24.22
24234;BME280;12365;43.554;1.388;2022-07-24T11:42:24;99782.56;;;38.90;24.09
24234;BME280;12365;43.554;1.388;2022-07-24T11:44:50;99777.53;;;38.97;24.17
24234;BME280;12365;43.554;1.388;2022-07-24T11:47:18;99774.16;;;39.06;23.82
24234;BME280;12365;43.554;1.388;2022-07-24T11:50:04;99775.78;;;39.21;23.92
24234;BME280;12365;43.554;1.388;2022-07-24T11:52:36;99771.03;;;39.38;23.82
24234;BME280;12365;43.554;1.388;2022-07-24T11:55:14;99760.06;;;39.51;23.44
24234;BME280;12365;43.554;1.388;2022-07-24T11:57:42;99760.06;;;39.63;23.52
24234;BME280;12365;43.554;1.388;2022-07-24T12:00:13;99764.81;;;39.73;23.15
24234;BME280;12365;43.554;1.388;2022-07-24T12:02:47;99758.81;;;39.80;23.18
24234;BME280;12365;43.554;1.388;2022-07-24T12:05:13;99755.50;;;39.75;22.84
24234;BME280;12365;43.554;1.388;2022-07-24T12:07:47;99750.63;;;39.80;22.94
24234;BME280;12365;43.554;1.388;2022-07-24T12:10:18;99740.97;;;39.87;23.03
24234;BME280;12365;43.554;1.388;2022-07-24T12:12:44;99736.91;;;39.93;22.65
24234;BME280;12365;43.554;1.388;2022-07-24T12:15:12;99735.69;;;39.97;22.50
24234;BME280;12365;43.554;1.388;2022-07-24T12:20:23;99726.97;;;39.92;22.58
24234;BME280;12365;43.554;1.388;2022-07-24T12:22:49;99718.66;;;39.94;22.73
24234;BME280;12365;43.554;1.388;2022-07-24T12:25:15;99713.38;;;40.03;22.68
24234;BME280;12365;43.554;1.388;2022-07-24T12:27:42;99703.91;;;40.07;22.25
24234;BME280;12365;43.554;1.388;2022-07-24T12:33:01;99696.91;;;40.16;22.49
24234;BME280;12365;43.554;1.388;2022-07-24T12:35:29;99700.09;;;40.34;22.45
24234;BME280;12365;43.554;1.388;2022-07-24T12:37:55;99695.53;;;40.46;22.13
24234;BME280;12365;43.554;1.388;2022-07-24T12:40:27;99695.00;;;40.41;21.94
24234;BME280;12365;43.554;1.388;2022-07-24T12:45:26;99693.66;;;40.46;21.78
24234;BME280;12365;43.554;1.388;2022-07-24T12:48:16;99685.88;;;40.64;21.63
24234;BME280;12365;43.554;1.388;2022-07-24T12:51:01;99677.56;;;40.66;21.91
24234;BME280;12365;43.554;1.388;2022-07-24T12:53:28;99680.56;;;40.74;21.68
24234;BME280;12365;43.554;1.388;2022-07-24T12:56:04;99679.94;;;40.70;21.57
24234;BME280;12365;43.554;1.388;2022-07-24T12:58:51;99671.00;;;40.80;21.35
24234;BME280;12365;43.554;1.388;2022-07-24T13:01:17;99668.88;;;40.83;21.28
24234;BME280;12365;43.554;1.388;2022-07-24T13:03:43;99662.69;;;40.92;21.33
24234;BME280;12365;43.554;1.388;2022-07-24T13:06:15;99663.41;;;41.06;21.10
24234;BME280;12365;43.554;1.388;2022-07-24T13:08:40;99658.47;;;41.11;21.16
24234;BME280;12365;43.554;1.388;2022-07-24T13:11:06;99668.19;;;41.15;21.15
24234;BME280;12365;43.554;1.388;2022-07-24T13:13:32;99662.59;;;41.28;20.95
24234;BME280;12365;43.554;1.388;2022-07-24T13:15:57;99654.94;;;41.43;20.86
24234;BME280;12365;43.554;1.388;2022-07-24T13:18:22;99658.94;;;41.61;20.63
24234;BME280;12365;43.554;1.388;2022-07-24T13:20:48;99656.91;;;41.74;20.50
24234;BME280;12365;43.554;1.388;2022-07-24T13:23:13;99655.13;;;41.85;20.35
24234;BME280;12365;43.554;1.388;2022-07-24T13:25:39;99655.34;;;41.93;20.27
24234;BME280;12365;43.554;1.388;2022-07-24T13:28:07;99642.28;;;41.96;20.07
24234;BME280;12365;43.554;1.388;2022-07-24T13:30:32;99636.53;;;41.88;20.25
24234;BME280;12365;43.554;1.388;2022-07-24T13:32:58;99641.88;;;41.90;20.41